createdAt,value
2023-04-30T00:00:50.332Z,97815.97
2023-04-30T00:02:58.505Z,97815.53
2023-04-30T00:05:06.744Z,97810.31
2023-04-30T00:07:14.774Z,97816.19
2023-04-30T00:09:22.889Z,97824.19
2023-04-30T00:11:30.957Z,97820.97
2023-04-30T00:13:39.350Z,97819.56
2023-04-30T00:15:50.094Z,97823.91
2023-04-30T00:17:58.098Z,97815.38
2023-04-30T00:20:06.239Z,97812.72
2023-04-30T00:22:14.277Z,97815.19
2023-04-30T00:24:22.458Z,97817.34
2023-04-30T00:26:30.641Z,97818.41
2023-04-30T00:28:38.816Z,97815.84
2023-04-30T00:30:49.827Z,97819.34
2023-04-30T00:32:57.722Z,97815.09
2023-04-30T00:35:05.950Z,97813.03
2023-04-30T00:37:14.216Z,97815.78
2023-04-30T00:39:22.101Z,97806.00
2023-04-30T00:41:31.423Z,97809.41
2023-04-30T00:43:39.263Z,97816.63
2023-04-30T00:45:50.301Z,97810.53
2023-04-30T00:47:58.453Z,97817.94
2023-04-30T00:50:06.623Z,97813.78
2023-04-30T00:52:14.783Z,97817.59
2023-04-30T00:54:24.459Z,97818.16
2023-04-30T00:56:34.421Z,97826.25
2023-04-30T00:58:43.000Z,97822.25
2023-04-30T01:00:53.931Z,97821.94
2023-04-30T01:03:02.573Z,97817.88
2023-04-30T01:05:11.484Z,97830.03
2023-04-30T01:07:19.571Z,97828.53
2023-04-30T01:09:29.621Z,97819.69
2023-04-30T01:11:51.108Z,97819.50
2023-04-30T01:14:08.502Z,97825.69
2023-04-30T01:16:26.059Z,97819.13
2023-04-30T01:18:41.037Z,97830.72
2023-04-30T01:20:55.574Z,97826.38
2023-04-30T01:23:14.775Z,97819.03
2023-04-30T01:25:47.092Z,97815.41
2023-04-30T01:28:16.132Z,97812.19
2023-04-30T01:30:25.672Z,97810.97
2023-04-30T01:32:34.032Z,97811.81
2023-04-30T01:34:41.986Z,97814.41
2023-04-30T01:37:06.772Z,97817.25
2023-04-30T01:39:39.778Z,97808.22
2023-04-30T01:41:56.962Z,97818.28
2023-04-30T01:44:21.123Z,97813.38
2023-04-30T01:46:32.417Z,97808.16
2023-04-30T01:48:49.746Z,97801.78
2023-04-30T01:51:06.432Z,97813.84
2023-04-30T01:53:23.954Z,97805.50
2023-04-30T01:55:46.250Z,97806.63
2023-04-30T01:58:00.628Z,97813.19
2023-04-30T02:00:15.302Z,97819.06
2023-04-30T02:02:23.411Z,97813.75
2023-04-30T02:04:31.339Z,97814.50
2023-04-30T02:06:39.318Z,97807.22
2023-04-30T02:08:47.519Z,97806.25
2023-04-30T02:10:55.700Z,97807.59
2023-04-30T02:13:03.620Z,97809.88
2023-04-30T02:15:15.766Z,97809.88
2023-04-30T02:17:23.997Z,97803.81
2023-04-30T02:19:31.923Z,97810.66
2023-04-30T02:21:40.573Z,97813.75
2023-04-30T02:23:48.970Z,97802.19
2023-04-30T02:25:57.008Z,97803.13
2023-04-30T02:28:04.971Z,97805.63
2023-04-30T02:30:15.630Z,97806.47
2023-04-30T02:32:23.625Z,97803.13
2023-04-30T02:34:31.909Z,97813.88
2023-04-30T02:36:39.948Z,97806.84
2023-04-30T02:38:48.238Z,97801.31
2023-04-30T02:40:56.331Z,97806.34
2023-04-30T02:43:06.680Z,97806.53
2023-04-30T02:45:17.489Z,97809.41
2023-04-30T02:47:25.509Z,97804.19
2023-04-30T02:49:33.744Z,97807.03
2023-04-30T02:51:41.670Z,97804.47
2023-04-30T02:53:49.849Z,97804.56
2023-04-30T02:55:59.355Z,97800.97
2023-04-30T02:58:07.680Z,97805.03
2023-04-30T03:00:18.895Z,97803.25
2023-04-30T03:02:27.021Z,97807.97
2023-04-30T03:04:35.036Z,97802.19
2023-04-30T03:06:43.470Z,97811.22
2023-04-30T03:08:52.146Z,97798.09
2023-04-30T03:11:00.006Z,97807.78
2023-04-30T03:13:07.969Z,97814.72
2023-04-30T03:15:18.743Z,97811.31
2023-04-30T03:17:26.782Z,97813.19
2023-04-30T03:19:34.839Z,97809.88
2023-04-30T03:21:51.708Z,97812.34
2023-04-30T03:24:09.361Z,97811.59
2023-04-30T03:26:17.617Z,97808.47
2023-04-30T03:28:25.511Z,97813.56
2023-04-30T03:30:36.384Z,97801.97
2023-04-30T03:32:44.800Z,97804.16
2023-04-30T03:34:53.419Z,97807.69
2023-04-30T03:37:01.993Z,97796.88
2023-04-30T03:39:10.123Z,97793.44
2023-04-30T03:41:18.305Z,97799.25
2023-04-30T03:43:26.164Z,97805.69
2023-04-30T03:45:36.803Z,97804.66
2023-04-30T03:47:45.596Z,97798.50
2023-04-30T03:49:56.049Z,97799.91
2023-04-30T03:52:05.785Z,97796.75
2023-04-30T03:54:14.187Z,97796.75
2023-04-30T03:56:26.022Z,97789.38
2023-04-30T03:58:34.288Z,97795.16
2023-04-30T04:00:46.464Z,97799.16
2023-04-30T04:02:54.709Z,97800.00
2023-04-30T04:05:03.550Z,97804.34
2023-04-30T04:07:12.005Z,97800.84
2023-04-30T04:09:20.263Z,97808.88
2023-04-30T04:11:28.396Z,97804.25
2023-04-30T04:13:37.572Z,97812.50
2023-04-30T04:15:48.271Z,97805.09
2023-04-30T04:17:56.870Z,97812.97
2023-04-30T04:20:06.448Z,97810.88
2023-04-30T04:22:16.394Z,97814.50
2023-04-30T04:24:27.353Z,97818.50
2023-04-30T04:26:35.474Z,97824.00
2023-04-30T04:28:43.542Z,97819.53
2023-04-30T04:30:54.379Z,97819.53
2023-04-30T04:33:02.733Z,97823.13
2023-04-30T04:35:11.885Z,97816.41
2023-04-30T04:37:21.090Z,97828.56
2023-04-30T04:39:29.079Z,97824.25
2023-04-30T04:41:38.104Z,97823.13
2023-04-30T04:43:47.088Z,97819.44
2023-04-30T04:45:57.853Z,97820.00
2023-04-30T04:48:06.190Z,97831.97
2023-04-30T04:50:14.704Z,97824.09
2023-04-30T04:52:23.734Z,97835.41
2023-04-30T04:54:33.713Z,97826.56
2023-04-30T04:56:42.106Z,97824.34
2023-04-30T04:58:50.231Z,97829.25
2023-04-30T05:01:01.103Z,97829.19
2023-04-30T05:03:09.578Z,97828.91
2023-04-30T05:05:17.809Z,97829.59
2023-04-30T05:07:27.404Z,97829.72
2023-04-30T05:09:37.368Z,97822.91
2023-04-30T05:11:46.547Z,97829.84
2023-04-30T05:13:54.529Z,97829.53
2023-04-30T05:16:06.628Z,97831.50
2023-04-30T05:18:16.588Z,97834.25
2023-04-30T05:20:24.648Z,97830.88
2023-04-30T05:22:32.475Z,97835.66
2023-04-30T05:24:40.351Z,97840.31
2023-04-30T05:26:48.728Z,97835.16
2023-04-30T05:29:00.016Z,97836.88
2023-04-30T05:31:10.702Z,97841.00
2023-04-30T05:33:18.628Z,97841.91
2023-04-30T05:35:27.529Z,97849.50
2023-04-30T05:37:35.436Z,97847.41
2023-04-30T05:39:43.385Z,97836.41
2023-04-30T05:41:53.392Z,97839.28
2023-04-30T05:44:03.010Z,97833.25
2023-04-30T05:46:13.533Z,97833.00
2023-04-30T05:48:21.784Z,97830.69
2023-04-30T05:50:29.680Z,97829.78
2023-04-30T05:52:40.022Z,97838.66
2023-04-30T05:54:50.059Z,97840.47
2023-04-30T05:56:58.103Z,97843.25
2023-04-30T05:59:06.431Z,97845.84
2023-04-30T06:01:17.451Z,97851.66
2023-04-30T06:03:27.591Z,97848.97
2023-04-30T06:05:35.584Z,97851.03
2023-04-30T06:07:43.532Z,97854.03
2023-04-30T06:09:53.048Z,97852.34
2023-04-30T06:12:02.692Z,97863.91
2023-04-30T06:14:10.607Z,97859.00
2023-04-30T06:16:21.246Z,97872.00
2023-04-30T06:18:29.115Z,97880.34
2023-04-30T06:20:37.667Z,97886.28
2023-04-30T06:22:45.505Z,97884.03
2023-04-30T06:24:53.493Z,97871.63
2023-04-30T06:27:01.716Z,97898.25
2023-04-30T06:29:11.937Z,97911.91
2023-04-30T06:31:22.484Z,97897.00
2023-04-30T06:33:30.443Z,97892.22
2023-04-30T06:35:38.313Z,97902.94
2023-04-30T06:37:53.554Z,97899.34
2023-04-30T06:40:01.832Z,97873.63
2023-04-30T06:42:12.225Z,97887.22
2023-04-30T06:44:21.508Z,97899.03
2023-04-30T06:46:32.343Z,97922.66
2023-04-30T06:48:40.255Z,97940.69
2023-04-30T06:50:48.201Z,97952.13
2023-04-30T06:52:56.224Z,97941.25
2023-04-30T06:55:04.391Z,97901.38
2023-04-30T06:57:12.537Z,97917.25
2023-04-30T06:59:21.132Z,97906.63
2023-04-30T07:01:33.584Z,97887.13
2023-04-30T07:03:41.755Z,97887.44
2023-04-30T07:05:50.045Z,97878.44
2023-04-30T07:07:57.939Z,97888.09
2023-04-30T07:10:05.921Z,97884.03
2023-04-30T07:12:14.476Z,97878.91
2023-04-30T07:14:24.526Z,97880.66
2023-04-30T07:16:36.075Z,97884.28
2023-04-30T07:18:43.985Z,97878.75
2023-04-30T07:20:51.982Z,97890.69
2023-04-30T07:22:59.942Z,97892.19
2023-04-30T07:25:10.014Z,97911.16
2023-04-30T07:27:18.938Z,97908.94
2023-04-30T07:29:27.126Z,97917.25
2023-04-30T07:31:37.746Z,97917.97
2023-04-30T07:33:45.802Z,97903.41
2023-04-30T07:35:56.219Z,97912.63
2023-04-30T07:38:06.564Z,97908.25
2023-04-30T07:40:25.349Z,97917.75
2023-04-30T07:42:45.349Z,97909.28
2023-04-30T07:44:53.349Z,97905.09
2023-04-30T07:47:03.907Z,97882.91
2023-04-30T07:49:11.965Z,97879.28
2023-04-30T07:51:19.908Z,97868.72
2023-04-30T07:53:28.369Z,97865.16
2023-04-30T07:55:36.257Z,97867.00
2023-04-30T07:57:44.317Z,97859.44
2023-04-30T07:59:53.184Z,97860.94
2023-04-30T08:02:04.669Z,97853.38
2023-04-30T08:04:12.915Z,97860.59
2023-04-30T08:06:21.429Z,97856.31
2023-04-30T08:08:29.525Z,97861.44
2023-04-30T08:10:37.891Z,97853.31
2023-04-30T08:12:45.841Z,97850.38
2023-04-30T08:14:54.048Z,97845.59
2023-04-30T08:17:04.950Z,97843.28
2023-04-30T08:19:12.969Z,97849.25
2023-04-30T08:21:21.229Z,97857.66
2023-04-30T08:23:30.838Z,97852.19
2023-04-30T08:25:38.812Z,97845.56
2023-04-30T08:27:46.864Z,97853.59
2023-04-30T08:29:54.889Z,97852.94
2023-04-30T08:32:06.934Z,97859.22
2023-04-30T08:34:14.769Z,97857.88
2023-04-30T08:36:22.872Z,97858.38
2023-04-30T08:38:31.715Z,97859.13
2023-04-30T08:40:51.069Z,97863.97
2023-04-30T08:43:08.512Z,97868.47
2023-04-30T08:45:16.866Z,97869.09
2023-04-30T08:47:27.688Z,97865.75
2023-04-30T08:49:37.348Z,97866.34
2023-04-30T08:51:46.107Z,97864.16
2023-04-30T08:53:56.233Z,97877.13
2023-04-30T08:56:04.506Z,97881.03
2023-04-30T08:58:12.676Z,97875.16
2023-04-30T09:00:21.310Z,97872.25
2023-04-30T09:02:31.935Z,97871.28
2023-04-30T09:04:42.929Z,97873.59
2023-04-30T09:06:51.150Z,97870.78
2023-04-30T09:08:59.181Z,97879.66
2023-04-30T09:11:28.470Z,97886.34
2023-04-30T09:13:44.529Z,97888.41
2023-04-30T09:15:55.287Z,97870.50
2023-04-30T09:18:30.208Z,97877.34
2023-04-30T09:20:38.945Z,97879.66
2023-04-30T09:22:48.309Z,97874.56
2023-04-30T09:24:57.226Z,97874.19
2023-04-30T09:27:19.419Z,97868.00
2023-04-30T09:29:39.674Z,97878.22
2023-04-30T09:31:50.723Z,97874.56
2023-04-30T09:34:02.323Z,97873.94
2023-04-30T09:36:14.660Z,97872.84
2023-04-30T09:38:30.908Z,97877.84
2023-04-30T09:40:40.554Z,97874.94
2023-04-30T09:43:01.914Z,97871.88
2023-04-30T09:45:14.054Z,97872.25
2023-04-30T09:47:23.699Z,97868.72
2023-04-30T09:49:34.662Z,97878.56
2023-04-30T09:51:57.878Z,97877.75
2023-04-30T09:54:07.403Z,97865.31
2023-04-30T09:56:23.143Z,97876.75
2023-04-30T09:58:32.151Z,97872.72
2023-04-30T10:00:42.721Z,97873.19
2023-04-30T10:02:51.713Z,97881.72
2023-04-30T10:05:03.242Z,97873.91
2023-04-30T10:07:15.920Z,97876.69
2023-04-30T10:09:26.108Z,97881.47
2023-04-30T10:11:38.802Z,97874.94
2023-04-30T10:13:54.590Z,97878.09
2023-04-30T10:16:07.770Z,97881.44
2023-04-30T10:18:20.945Z,97888.81
2023-04-30T10:20:33.873Z,97884.25
2023-04-30T10:22:43.923Z,97892.09
2023-04-30T10:24:52.170Z,97891.34
2023-04-30T10:27:00.404Z,97899.47
2023-04-30T10:29:10.002Z,97886.13
2023-04-30T10:31:19.533Z,97891.47
2023-04-30T10:33:35.171Z,97893.00
2023-04-30T10:35:50.569Z,97890.00
2023-04-30T10:38:07.674Z,97899.06
2023-04-30T10:40:18.974Z,97888.06
2023-04-30T10:42:27.071Z,97891.75
2023-04-30T10:44:36.675Z,97894.59
2023-04-30T10:46:46.947Z,97884.63
2023-04-30T10:48:56.886Z,97895.38
2023-04-30T10:51:08.460Z,97880.84
2023-04-30T10:53:22.269Z,97887.47
2023-04-30T10:55:33.108Z,97875.16
2023-04-30T10:57:48.568Z,97870.28
2023-04-30T11:00:17.567Z,97866.97
2023-04-30T11:02:25.442Z,97871.34
2023-04-30T11:04:33.405Z,97858.38
2023-04-30T11:06:59.465Z,97859.63
2023-04-30T11:09:07.663Z,97853.72
2023-04-30T11:11:21.642Z,97854.16
2023-04-30T11:13:30.304Z,97871.34
2023-04-30T11:15:43.846Z,97866.03
2023-04-30T11:17:52.569Z,97852.50
2023-04-30T11:20:03.764Z,97864.88
2023-04-30T11:22:24.379Z,97860.56
2023-04-30T11:24:53.029Z,97859.84
2023-04-30T11:27:07.651Z,97865.84
2023-04-30T11:29:16.956Z,97858.63
2023-04-30T11:31:25.416Z,97854.34
2023-04-30T11:33:34.799Z,97861.72
2023-04-30T11:35:42.962Z,97856.34
2023-04-30T11:37:58.857Z,97851.94
2023-04-30T11:40:09.055Z,97858.66
2023-04-30T11:42:21.928Z,97858.78
2023-04-30T11:44:30.425Z,97857.91
2023-04-30T11:46:39.618Z,97854.94
2023-04-30T11:48:49.504Z,97848.13
2023-04-30T11:50:57.350Z,97846.81
2023-04-30T11:53:07.935Z,97842.63
2023-04-30T11:55:19.724Z,97839.50
2023-04-30T11:57:28.039Z,97835.59
2023-04-30T11:59:44.179Z,97839.56
2023-04-30T12:01:52.277Z,97840.75
2023-04-30T12:04:00.738Z,97828.41
2023-04-30T12:06:09.028Z,97837.50
2023-04-30T12:08:22.967Z,97822.16
2023-04-30T12:10:31.227Z,97830.03
2023-04-30T12:12:40.091Z,97824.91
2023-04-30T12:14:48.638Z,97821.88
2023-04-30T12:16:56.844Z,97830.00
2023-04-30T12:19:05.032Z,97824.16
2023-04-30T12:21:13.650Z,97830.69
2023-04-30T12:23:24.504Z,97824.47
2023-04-30T12:25:34.294Z,97817.63
2023-04-30T12:27:42.796Z,97824.44
2023-04-30T12:29:51.969Z,97828.19
2023-04-30T12:31:59.940Z,97816.16
2023-04-30T12:34:09.086Z,97819.66
2023-04-30T12:36:17.271Z,97827.41
2023-04-30T12:38:28.018Z,97825.97
2023-04-30T12:40:37.263Z,97825.63
2023-04-30T12:42:47.174Z,97816.09
2023-04-30T12:44:57.325Z,97818.81
2023-04-30T12:47:10.921Z,97820.00
2023-04-30T12:49:38.845Z,97814.59
2023-04-30T12:51:47.584Z,97818.41
2023-04-30T12:53:58.166Z,97820.66
2023-04-30T12:56:16.617Z,97810.91
2023-04-30T12:58:24.652Z,97802.25
2023-04-30T13:00:46.650Z,97799.00
2023-04-30T13:02:54.826Z,97792.13
2023-04-30T13:05:02.904Z,97792.97
2023-04-30T13:07:10.822Z,97794.69
2023-04-30T13:09:22.547Z,97793.13
2023-04-30T13:11:30.684Z,97789.28
2023-04-30T13:13:38.588Z,97793.38
2023-04-30T13:15:46.958Z,97787.44
2023-04-30T13:17:56.010Z,97783.72
2023-04-30T13:20:04.550Z,97781.03
2023-04-30T13:22:15.874Z,97777.78
2023-04-30T13:24:26.395Z,97777.03
2023-04-30T13:26:34.613Z,97787.28
2023-04-30T13:28:42.811Z,97782.53
2023-04-30T13:30:50.722Z,97779.25
2023-04-30T13:32:59.504Z,97773.22
2023-04-30T13:35:08.691Z,97764.69
2023-04-30T13:37:17.493Z,97768.03
2023-04-30T13:39:28.268Z,97752.34
2023-04-30T13:41:36.243Z,97769.09
2023-04-30T13:43:47.894Z,97773.38
2023-04-30T13:45:55.713Z,97769.25
2023-04-30T13:48:03.733Z,97766.13
2023-04-30T13:50:12.593Z,97774.59
2023-04-30T13:52:20.598Z,97766.38
2023-04-30T13:54:31.293Z,97762.59
2023-04-30T13:56:39.280Z,97754.72
2023-04-30T13:58:47.344Z,97756.97
2023-04-30T14:00:55.346Z,97763.66
2023-04-30T14:03:05.667Z,97766.84
2023-04-30T14:05:15.988Z,97769.03
2023-04-30T14:07:23.914Z,97768.34
2023-04-30T14:09:34.514Z,97757.25
2023-04-30T14:11:44.993Z,97756.41
2023-04-30T14:13:55.511Z,97756.25
2023-04-30T14:16:05.176Z,97750.13
2023-04-30T14:18:13.446Z,97748.56
2023-04-30T14:20:21.592Z,97760.91
2023-04-30T14:22:29.671Z,97750.13
2023-04-30T14:24:40.324Z,97752.13
2023-04-30T14:26:48.468Z,97750.03
2023-04-30T14:28:56.436Z,97746.69
2023-04-30T14:31:04.751Z,97745.50
2023-04-30T14:33:13.190Z,97738.50
2023-04-30T14:35:21.363Z,97741.06
2023-04-30T14:37:29.755Z,97733.09
2023-04-30T14:39:40.356Z,97731.25
2023-04-30T14:41:48.359Z,97732.78
2023-04-30T14:43:56.518Z,97729.41
2023-04-30T14:46:04.574Z,97720.44
2023-04-30T14:48:13.835Z,97724.78
2023-04-30T14:50:22.590Z,97708.13
2023-04-30T14:52:30.666Z,97712.78
2023-04-30T14:54:41.105Z,97709.84
2023-04-30T14:56:49.518Z,97703.66
2023-04-30T14:58:57.453Z,97703.91
2023-04-30T15:01:05.607Z,97704.09
2023-04-30T15:03:13.530Z,97705.63
2023-04-30T15:05:21.854Z,97709.34
2023-04-30T15:07:30.283Z,97696.44
2023-04-30T15:09:41.066Z,97710.13
2023-04-30T15:11:49.002Z,97706.44
2023-04-30T15:13:57.434Z,97705.63
2023-04-30T15:16:06.037Z,97701.41
2023-04-30T15:18:14.391Z,97704.34
2023-04-30T15:20:22.801Z,97698.53
2023-04-30T15:22:31.291Z,97703.47
2023-04-30T15:24:41.967Z,97687.81
2023-04-30T15:26:51.342Z,97689.59
2023-04-30T15:28:59.345Z,97684.53
2023-04-30T15:31:08.528Z,97684.56
2023-04-30T15:33:16.751Z,97685.41
2023-04-30T15:35:24.734Z,97679.47
2023-04-30T15:37:32.626Z,97684.56
2023-04-30T15:39:43.794Z,97691.00
2023-04-30T15:41:55.892Z,97678.69
2023-04-30T15:44:03.720Z,97683.72
2023-04-30T15:46:12.137Z,97682.16
2023-04-30T15:48:20.194Z,97681.59
2023-04-30T15:50:28.069Z,97685.13
2023-04-30T15:52:38.232Z,97684.97
2023-04-30T15:54:50.791Z,97682.28
2023-04-30T15:56:59.934Z,97675.34
2023-04-30T15:59:09.933Z,97678.72
2023-04-30T16:01:17.812Z,97674.06
2023-04-30T16:03:26.197Z,97674.38
2023-04-30T16:05:35.237Z,97669.44
2023-04-30T16:07:44.004Z,97666.75
2023-04-30T16:09:55.163Z,97668.72
2023-04-30T16:12:03.162Z,97666.91
2023-04-30T16:14:12.312Z,97662.22
2023-04-30T16:16:20.617Z,97669.28
2023-04-30T16:18:30.041Z,97666.56
2023-04-30T16:20:38.005Z,97657.16
2023-04-30T16:22:46.249Z,97651.41
2023-04-30T16:24:57.257Z,97652.59
2023-04-30T16:27:05.431Z,97646.63
2023-04-30T16:29:13.321Z,97654.38
2023-04-30T16:31:23.626Z,97649.72
2023-04-30T16:33:32.051Z,97658.09
2023-04-30T16:35:40.000Z,97644.63
2023-04-30T16:37:48.140Z,97639.69
2023-04-30T16:39:58.746Z,97648.97
2023-04-30T16:42:06.905Z,97650.34
2023-04-30T16:44:16.890Z,97649.63
2023-04-30T16:46:26.543Z,97638.00
2023-04-30T16:48:34.640Z,97635.31
2023-04-30T16:50:47.242Z,97638.44
2023-04-30T16:52:58.159Z,97634.75
2023-04-30T16:55:10.505Z,97632.63
2023-04-30T16:57:18.713Z,97624.94
2023-04-30T16:59:29.103Z,97629.25
2023-04-30T17:01:37.409Z,97630.50
2023-04-30T17:03:46.679Z,97631.72
2023-04-30T17:05:57.072Z,97633.16
2023-04-30T17:08:05.909Z,97631.28
2023-04-30T17:10:18.812Z,97631.03
2023-04-30T17:12:28.589Z,97630.31
2023-04-30T17:14:36.979Z,97630.56
2023-04-30T17:16:52.018Z,97627.69
2023-04-30T17:19:00.096Z,97628.44
2023-04-30T17:21:09.451Z,97629.53
2023-04-30T17:23:17.390Z,97630.34
2023-04-30T17:25:29.885Z,97626.69
2023-04-30T17:27:38.019Z,97626.34
2023-04-30T17:29:46.090Z,97629.13
2023-04-30T17:31:54.653Z,97624.16
2023-04-30T17:34:08.445Z,97626.75
2023-04-30T17:36:16.417Z,97623.97
2023-04-30T17:38:24.386Z,97634.06
2023-04-30T17:40:34.886Z,97633.09
2023-04-30T17:42:42.821Z,97638.72
2023-04-30T17:44:50.878Z,97638.34
2023-04-30T17:46:59.215Z,97626.94
2023-04-30T17:49:07.170Z,97632.44
2023-04-30T17:51:15.352Z,97633.78
2023-04-30T17:53:23.373Z,97631.59
2023-04-30T17:55:34.191Z,97631.41
2023-04-30T17:57:42.101Z,97631.56
2023-04-30T17:59:50.060Z,97631.69
2023-04-30T18:01:58.061Z,97635.81
2023-04-30T18:04:10.213Z,97632.22
2023-04-30T18:06:18.323Z,97632.44
2023-04-30T18:08:27.031Z,97634.41
2023-04-30T18:10:37.936Z,97624.31
2023-04-30T18:12:46.155Z,97629.44
2023-04-30T18:14:54.208Z,97627.97
2023-04-30T18:17:02.579Z,97629.69
2023-04-30T18:19:10.577Z,97629.81
2023-04-30T18:21:18.681Z,97633.59
2023-04-30T18:23:28.285Z,97628.47
2023-04-30T18:25:40.432Z,97625.22
2023-04-30T18:27:48.405Z,97619.31
2023-04-30T18:29:56.600Z,97623.78
2023-04-30T18:32:04.899Z,97621.88
2023-04-30T18:34:13.254Z,97623.06
2023-04-30T18:36:21.208Z,97615.91
2023-04-30T18:38:29.308Z,97612.13
2023-04-30T18:40:42.125Z,97620.84
2023-04-30T18:42:50.149Z,97610.16
2023-04-30T18:44:58.894Z,97614.03
2023-04-30T18:47:07.408Z,97619.13
2023-04-30T18:49:16.036Z,97610.16
2023-04-30T18:51:24.003Z,97610.97
2023-04-30T18:53:31.983Z,97613.78
2023-04-30T18:55:43.181Z,97614.00
2023-04-30T18:57:51.082Z,97618.69
2023-04-30T18:59:59.077Z,97613.34
2023-04-30T19:02:07.023Z,97608.50
2023-04-30T19:04:17.102Z,97611.78
2023-04-30T19:06:25.094Z,97616.78
2023-04-30T19:08:33.010Z,97611.53
2023-04-30T19:10:44.678Z,97616.81
2023-04-30T19:12:52.720Z,97621.69
2023-04-30T19:15:05.205Z,97618.34
2023-04-30T19:17:14.831Z,97621.34
2023-04-30T19:19:23.088Z,97613.44
2023-04-30T19:21:35.662Z,97612.56
2023-04-30T19:23:43.792Z,97616.63
2023-04-30T19:26:03.213Z,97617.44
2023-04-30T19:28:17.711Z,97602.06
2023-04-30T19:30:28.586Z,97611.50
2023-04-30T19:32:37.665Z,97611.72
2023-04-30T19:34:45.793Z,97612.06
2023-04-30T19:36:53.890Z,97614.91
2023-04-30T19:39:02.147Z,97608.72
2023-04-30T19:41:12.795Z,97619.81
2023-04-30T19:43:22.428Z,97614.53
2023-04-30T19:45:30.426Z,97616.66
2023-04-30T19:47:39.234Z,97619.00
2023-04-30T19:49:50.082Z,97615.59
2023-04-30T19:51:58.219Z,97608.78
2023-04-30T19:54:09.727Z,97613.47
2023-04-30T19:56:20.393Z,97608.38
2023-04-30T19:58:28.443Z,97611.59
2023-04-30T20:00:39.662Z,97605.09
2023-04-30T20:02:47.929Z,97609.88
2023-04-30T20:04:57.020Z,97605.75
2023-04-30T20:07:05.446Z,97601.81
2023-04-30T20:09:13.476Z,97598.53
2023-04-30T20:11:25.104Z,97594.91
2023-04-30T20:13:33.148Z,97589.06
2023-04-30T20:15:43.548Z,97592.34
2023-04-30T20:17:51.774Z,97593.94
2023-04-30T20:19:59.721Z,97587.03
2023-04-30T20:22:13.445Z,97597.47
2023-04-30T20:24:21.850Z,97591.19
2023-04-30T20:26:32.933Z,97591.94
2023-04-30T20:28:40.958Z,97589.41
2023-04-30T20:30:49.697Z,97590.88
2023-04-30T20:32:57.790Z,97588.41
2023-04-30T20:35:07.394Z,97589.28
2023-04-30T20:37:17.303Z,97590.66
2023-04-30T20:39:25.913Z,97591.59
2023-04-30T20:41:36.610Z,97588.31
2023-04-30T20:43:44.898Z,97592.28
2023-04-30T20:45:53.112Z,97583.22
2023-04-30T20:48:01.150Z,97579.59
2023-04-30T20:50:10.788Z,97582.78
2023-04-30T20:52:19.233Z,97577.03
2023-04-30T20:54:27.316Z,97582.03
2023-04-30T20:56:37.997Z,97589.03
2023-04-30T20:58:46.152Z,97585.16
2023-04-30T21:00:54.072Z,97580.25
2023-04-30T21:03:02.464Z,97585.28
2023-04-30T21:05:11.944Z,97585.59
2023-04-30T21:07:20.443Z,97581.22
2023-04-30T21:09:32.896Z,97580.22
2023-04-30T21:11:45.857Z,97576.50
2023-04-30T21:13:53.763Z,97584.25
2023-04-30T21:16:05.596Z,97576.44
2023-04-30T21:18:17.481Z,97582.69
2023-04-30T21:20:25.668Z,97583.09
2023-04-30T21:22:35.143Z,97576.28
2023-04-30T21:24:43.314Z,97579.16
2023-04-30T21:26:54.553Z,97576.50
2023-04-30T21:29:02.680Z,97582.13
2023-04-30T21:31:11.420Z,97577.78
2023-04-30T21:33:19.299Z,97576.69
2023-04-30T21:35:28.001Z,97577.00
2023-04-30T21:37:36.516Z,97563.38
2023-04-30T21:39:44.732Z,97563.69
2023-04-30T21:41:55.472Z,97560.50
2023-04-30T21:44:03.750Z,97558.56
2023-04-30T21:46:13.589Z,97557.84
2023-04-30T21:48:22.005Z,97559.75
2023-04-30T21:50:30.504Z,97553.66
2023-04-30T21:52:38.448Z,97549.13
2023-04-30T21:54:48.173Z,97547.94
2023-04-30T21:57:00.705Z,97548.34
2023-04-30T21:59:11.382Z,97545.50
2023-04-30T22:01:19.933Z,97539.53
2023-04-30T22:03:28.379Z,97542.50
2023-04-30T22:05:36.576Z,97543.44
2023-04-30T22:07:45.983Z,97544.09
2023-04-30T22:09:54.705Z,97534.63
2023-04-30T22:12:07.092Z,97534.09
2023-04-30T22:14:15.272Z,97534.09
2023-04-30T22:16:23.566Z,97534.03
2023-04-30T22:18:31.549Z,97529.88
2023-04-30T22:20:39.433Z,97528.78
2023-04-30T22:22:47.515Z,97528.06
2023-04-30T22:24:55.533Z,97523.81
2023-04-30T22:27:06.352Z,97523.09
2023-04-30T22:29:14.228Z,97521.91
2023-04-30T22:31:22.155Z,97527.66
2023-04-30T22:33:30.764Z,97519.97
2023-04-30T22:35:41.210Z,97514.34
2023-04-30T22:37:49.469Z,97505.91
2023-04-30T22:39:57.632Z,97516.84
2023-04-30T22:42:08.683Z,97511.94
2023-04-30T22:44:17.317Z,97504.06
2023-04-30T22:46:25.457Z,97515.75
2023-04-30T22:48:34.502Z,97508.94
2023-04-30T22:50:42.692Z,97510.53
2023-04-30T22:52:50.985Z,97513.09
2023-04-30T22:54:59.372Z,97509.50
2023-04-30T22:57:10.141Z,97508.53
2023-04-30T22:59:17.979Z,97510.44
2023-04-30T23:01:26.334Z,97511.50
2023-04-30T23:03:34.280Z,97505.44
2023-04-30T23:05:42.827Z,97510.94
2023-04-30T23:07:52.452Z,97508.28
2023-04-30T23:10:00.527Z,97508.28
2023-04-30T23:12:12.366Z,97510.75
2023-04-30T23:14:20.354Z,97505.13
2023-04-30T23:16:28.410Z,97506.41
2023-04-30T23:18:36.952Z,97507.84
2023-04-30T23:20:45.554Z,97504.44
2023-04-30T23:22:53.791Z,97504.22
2023-04-30T23:25:01.837Z,97500.84
2023-04-30T23:27:12.641Z,97496.56
2023-04-30T23:29:21.469Z,97495.25
2023-04-30T23:31:29.555Z,97493.38
2023-04-30T23:33:37.456Z,97496.25
2023-04-30T23:35:45.974Z,97493.59
2023-04-30T23:37:54.024Z,97489.88
2023-04-30T23:40:02.061Z,97492.84
2023-04-30T23:42:13.723Z,97491.97
2023-04-30T23:44:21.934Z,97488.31
2023-04-30T23:46:30.269Z,97486.78
2023-04-30T23:48:38.169Z,97493.63
2023-04-30T23:50:47.422Z,97485.13
2023-04-30T23:52:55.446Z,97479.88
2023-04-30T23:55:03.419Z,97477.25
2023-04-30T23:57:14.103Z,97476.06
2023-04-30T23:59:22.377Z,97478.38
